Time;durP1;ratioP1;P1;durP2;ratioP2;P2;SDS_P1;SDS_P2;PMS_P1;PMS_P2;Temp;Humidity;BMP_temperature;BMP_pressure;BME280_temperature;BME280_humidity;BME280_pressure;Samples;Min_cycle;Max_cycle;Signal;HPM_P1;HPM_P2
2022/02/16 00:05:08;;;;;;;;;;;;;;;;;;;;;
2022/02/16 00:07:45;;;;;;;;;;;;;;;;;;;;;
2022/02/16 00:14:24;;;;;;;;;;;;;;;;;;;;;
2022/02/16 01:04:42;;;;;;;;;0.00;0.00;;;;;10.48;75.84;100513.09;5898595;24;45421;-83
2022/02/16 01:07:08;;;;;;;;;0.00;0.00;;;;;10.57;76.03;100530.59;5912880;23;45489;-85
2022/02/16 01:09:34;;;;;;;;;0.00;0.00;;;;;10.54;75.60;100520.94;6100034;23;45477;-85
2022/02/16 01:11:59;;;;;;;;;0.00;0.00;;;;;10.56;75.74;100520.94;6220973;22;45447;-85
2022/02/16 01:14:25;;;;;;;;;0.00;0.00;;;;;10.49;75.74;100498.19;6246551;22;47481;-86
2022/02/16 01:16:50;;;;;;;;;0.00;0.00;;;;;10.55;75.88;100499.00;6305464;22;45492;-86
2022/02/16 01:19:16;;;;;;;;;0.75;0.75;;;;;10.59;75.92;100508.63;6283385;22;45310;-85
2022/02/16 01:21:41;;;;;;;;;0.00;0.00;;;;;10.57;75.95;100497.22;6310575;22;45351;-86
2022/02/16 01:24:07;;;;;;;;;0.00;0.00;;;;;10.64;75.72;100494.53;6311935;22;45244;-85
2022/02/16 01:26:32;;;;;;;;;0.00;0.00;;;;;10.62;75.85;100499.84;6282511;22;45234;-84
2022/02/16 01:28:58;;;;;;;;;0.00;0.00;;;;;10.66;75.92;100505.94;6283580;22;45403;-85
2022/02/16 01:31:24;;;;;;;;;0.00;0.00;;;;;10.66;75.67;100505.94;6284552;22;45452;-85
2022/02/16 01:33:49;;;;;;;;;0.00;0.00;;;;;10.57;75.91;100472.66;6312136;22;46210;-85
2022/02/16 01:36:15;;;;;;;;;0.00;0.00;;;;;10.60;75.85;100480.53;6283161;22;45849;-85
2022/02/16 01:38:43;;;;;;;;;0.33;0.00;;;;;10.63;75.86;100482.28;6285653;22;45281;-85
2022/02/16 01:41:14;;;;;;;;;0.00;0.00;;;;;10.53;75.94;100466.56;6284223;22;45464;-86
2022/02/16 01:43:45;;;;;;;;;0.00;0.00;;;;;10.64;76.06;100479.66;6285263;22;47613;-85
2022/02/16 01:46:13;;;;;;;;;1.00;0.33;;;;;10.66;76.03;100498.03;6312635;22;45355;-85
2022/02/16 01:48:38;;;;;;;;;1.00;1.00;;;;;10.59;76.11;100470.91;6311608;22;45244;-85
2022/02/16 01:51:04;;;;;;;;;0.00;0.00;;;;;10.70;76.02;100487.47;6312327;22;45492;-84
2022/02/16 01:53:29;;;;;;;;;0.00;0.00;;;;;10.70;76.15;100478.72;6313219;22;45182;-85
2022/02/16 01:55:55;;;;;;;;;0.00;0.00;;;;;10.61;76.14;100453.31;6284472;22;45092;-85
2022/02/16 01:58:21;;;;;;;;;0.00;0.00;;;;;10.63;76.30;100448.91;6285226;22;45381;-85
2022/02/16 02:00:46;;;;;;;;;1.00;0.33;;;;;10.67;76.23;100455.91;6284771;22;45357;-86
2022/02/16 02:03:12;;;;;;;;;0.00;0.00;;;;;10.64;76.18;100440.16;6285085;22;45995;-86
2022/02/16 02:05:40;;;;;;;;;2.00;2.00;;;;;10.69;76.61;100440.09;6285154;22;45380;-86
2022/02/16 02:08:06;;;;;;;;;0.00;0.00;;;;;10.71;76.44;100440.97;6286173;22;44756;-86
2022/02/16 02:10:31;;;;;;;;;0.00;0.00;;;;;10.74;76.51;100435.66;6285000;22;45472;-86
2022/02/16 02:12:57;;;;;;;;;0.00;0.00;;;;;10.63;76.38;100417.31;6285035;22;47780;-86
2022/02/16 02:15:24;;;;;;;;;1.00;1.00;;;;;10.67;76.67;100413.78;6313505;22;45097;-87
2022/02/16 02:17:50;;;;;;;;;0.00;0.00;;;;;10.73;76.63;100426.88;6286333;22;45213;-86
2022/02/16 02:20:23;;;;;;;;;0.00;0.00;;;;;10.69;76.65;100422.56;6285790;22;45204;-85
2022/02/16 02:22:49;;;;;;;;;1.00;0.00;;;;;10.73;76.50;100416.38;6286467;22;47869;-86
2022/02/16 02:25:15;;;;;;;;;0.00;0.00;;;;;10.69;76.85;100408.50;6314436;22;45113;-86
2022/02/16 02:27:41;;;;;;;;;0.00;0.00;;;;;10.74;76.72;100404.94;6312347;22;45191;-87
2022/02/16 02:30:07;;;;;;;;;0.00;0.00;;;;;10.74;76.49;100398.78;6283529;22;45360;-86
2022/02/16 02:32:33;;;;;;;;;0.00;0.00;;;;;10.82;76.63;100408.38;6285841;22;46998;-87
2022/02/16 02:34:59;;;;;;;;;2.00;2.00;;;;;10.73;76.60;100384.75;6285403;22;45350;-86
2022/02/16 02:37:25;;;;;;;;;1.00;0.00;;;;;10.82;76.56;100389.94;6286715;22;45298;-86
2022/02/16 02:39:51;;;;;;;;;0.00;0.00;;;;;10.76;76.90;100373.34;6287431;22;46124;-85
2022/02/16 02:42:17;;;;;;;;;0.67;0.00;;;;;10.86;76.81;100385.50;6287457;22;47265;-86
2022/02/16 02:44:42;;;;;;;;;1.00;0.00;;;;;10.78;76.83;100366.28;6312901;22;45270;-87
2022/02/16 02:47:08;;;;;;;;;0.00;0.00;;;;;10.78;76.77;100358.41;6287704;22;45181;-86
2022/02/16 02:49:35;;;;;;;;;0.00;0.00;;;;;10.88;76.68;100367.94;6315330;22;45385;-87
2022/02/16 02:52:01;;;;;;;;;0.00;0.00;;;;;10.87;76.82;100358.28;6315245;22;46080;-85
2022/02/16 02:54:26;;;;;;;;;0.00;0.00;;;;;10.88;76.81;100362.69;6287017;22;45548;-87
2022/02/16 02:56:52;;;;;;;;;0.00;0.00;;;;;10.92;76.86;100364.38;6287329;22;45345;-87
2022/02/16 02:59:18;;;;;;;;;0.00;0.00;;;;;10.89;76.74;100361.78;6315627;22;45264;-86
2022/02/16 03:01:43;;;;;;;;;0.00;0.00;;;;;10.94;76.93;100340.66;6315790;22;45352;-86
2022/02/16 03:04:09;;;;;;;;;0.00;0.00;;;;;10.95;76.90;100348.53;6287304;22;45760;-87
2022/02/16 03:06:34;;;;;;;;;0.00;0.00;;;;;10.90;77.13;100333.69;6294784;22;45334;-85
2022/02/16 03:09:02;;;;;;;;;0.00;0.00;;;;;10.92;77.23;100339.81;6296433;22;45356;-85
2022/02/16 03:11:28;;;;;;;;;0.00;0.00;;;;;10.91;77.21;100333.66;6296463;22;46862;-87
2022/02/16 03:13:53;;;;;;;;;0.00;0.00;;;;;10.87;78.22;100305.63;6323051;22;45099;-86
2022/02/16 03:16:18;;;;;;;;;0.00;0.00;;;;;10.98;77.40;100318.66;6296550;22;45395;-86
2022/02/16 03:18:44;;;;;;;;;1.00;0.00;;;;;11.00;77.46;100316.88;6294762;22;45213;-86
2022/02/16 03:21:10;;;;;;;;;2.00;2.00;;;;;11.03;77.37;100308.94;6290583;22;46980;-86
2022/02/16 03:23:35;;;;;;;;;0.00;0.00;;;;;11.04;77.39;100311.56;6294194;22;45223;-88
2022/02/16 03:26:01;;;;;;;;;0.00;0.00;;;;;11.03;77.46;100315.06;6324683;22;45157;-87
2022/02/16 03:28:27;;;;;;;;;0.00;0.00;;;;;10.94;80.86;100288.00;6326709;22;45270;-86
2022/02/16 03:30:54;;;;;;;;;0.00;0.00;;;;;10.97;77.64;100298.47;6325711;22;45161;-86
2022/02/16 03:33:20;;;;;;;;;0.00;0.00;;;;;11.02;77.86;100291.41;6296130;22;44644;-86
2022/02/16 03:35:48;;;;;;;;;0.00;0.00;;;;;11.03;77.56;100287.84;6293003;22;45266;-87
2022/02/16 03:38:14;;;;;;;;;0.00;0.00;;;;;11.03;78.04;100294.00;6289870;22;45690;-87
2022/02/16 03:40:40;;;;;;;;;0.00;0.00;;;;;11.07;77.67;100286.94;6289180;22;47127;-86
2022/02/16 03:43:05;;;;;;;;;0.00;0.00;;;;;11.08;77.71;100291.31;6317100;22;45190;-86
2022/02/16 03:45:31;;;;;;;;;0.00;0.00;;;;;11.09;77.79;100298.31;6318063;22;45292;-86
2022/02/16 03:47:56;;;;;;;;;0.00;0.00;;;;;11.13;77.88;100286.84;6291177;22;45484;-86
2022/02/16 03:50:23;;;;;;;;;0.00;0.00;;;;;11.04;77.92;100263.28;6291128;22;45564;-86
2022/02/16 03:52:52;;;;;;;;;0.00;0.00;;;;;11.07;77.83;100265.00;6319724;22;44715;-87
2022/02/16 03:55:21;;;;;;;;;1.00;0.00;;;;;11.10;77.88;100263.19;6319504;22;45160;-86
2022/02/16 03:57:46;;;;;;;;;0.00;0.00;;;;;11.13;78.21;100260.50;6290517;22;45277;-86
2022/02/16 04:00:12;;;;;;;;;0.00;0.00;;;;;11.20;78.06;100272.72;6290385;22;46776;-87
2022/02/16 04:02:41;;;;;;;;;0.00;0.00;;;;;11.15;78.16;100260.50;6290485;22;45279;-86
2022/02/16 04:05:07;;;;;;;;;0.00;0.00;;;;;11.12;78.11;100237.69;6289717;22;45195;-87
2022/02/16 04:07:33;;;;;;;;;0.00;0.00;;;;;11.19;78.20;100252.50;6318581;22;44846;-86
2022/02/16 04:10:01;;;;;;;;;1.00;0.00;;;;;11.24;77.76;100263.84;6289517;22;46975;-87
2022/02/16 04:12:29;;;;;;;;;0.00;0.00;;;;;11.28;77.71;100264.69;6289851;22;45397;-87
2022/02/16 04:14:55;;;;;;;;;0.00;0.00;;;;;11.30;77.82;100251.50;6317160;22;45419;-85
2022/02/16 04:17:21;;;;;;;;;0.00;0.00;;;;;11.32;77.67;100253.22;6289536;22;45263;-86
2022/02/16 04:19:46;;;;;;;;;0.00;0.00;;;;;11.29;77.93;100253.25;6288844;22;46572;-86
2022/02/16 04:22:14;;;;;;;;;0.00;0.00;;;;;11.32;77.77;100247.06;6318739;22;45101;-86
2022/02/16 04:24:41;;;;;;;;;0.00;0.00;;;;;11.29;77.85;100248.00;6315312;22;45186;-86
2022/02/16 04:27:08;;;;;;;;;0.00;0.00;;;;;11.35;77.87;100252.28;6316358;22;45488;-87
2022/02/16 04:29:36;;;;;;;;;0.00;0.00;;;;;11.32;77.85;100245.31;6317018;22;45337;-87
2022/02/16 04:32:02;;;;;;;;;0.00;0.00;;;;;11.38;77.81;100242.56;6290525;22;45192;-86
2022/02/16 04:34:28;;;;;;;;;0.00;0.00;;;;;11.35;77.99;100226.81;6289061;22;45267;-85
2022/02/16 04:36:53;;;;;;;;;0.00;0.00;;;;;11.40;77.83;100242.56;6318410;22;45160;-86
2022/02/16 04:39:19;;;;;;;;;0.00;0.00;;;;;11.39;77.75;100225.88;6317728;22;45257;-87
2022/02/16 04:41:47;;;;;;;;;0.00;0.00;;;;;11.41;77.92;100232.00;6290256;22;45191;-86
2022/02/16 04:44:12;;;;;;;;;0.00;0.00;;;;;11.46;77.72;100237.19;6289602;22;45272;-87
2022/02/16 04:46:48;;;;;;;;;0.33;0.33;;;;;11.48;78.10;100223.09;6318142;22;45195;-87
2022/02/16 04:49:16;;;;;;;;;0.00;0.00;;;;;11.47;78.69;100221.34;6289707;22;47052;-87
2022/02/16 04:51:45;;;;;;;;;0.00;0.00;;;;;11.48;78.53;100232.75;6290224;22;45264;-87
2022/02/16 04:54:10;;;;;;;;;0.00;0.00;;;;;11.49;78.47;100223.94;6289798;22;45204;-87
2022/02/16 04:56:38;;;;;;;;;0.00;0.00;;;;;11.51;78.48;100226.56;6290138;22;45362;-88
2022/02/16 04:59:04;;;;;;;;;0.00;0.00;;;;;11.62;78.30;100228.13;6289643;22;47901;-88
2022/02/16 05:01:29;;;;;;;;;0.00;0.00;;;;;11.61;78.41;100226.41;6318062;22;45392;-87
2022/02/16 05:03:55;;;;;;;;;2.00;1.67;;;;;11.56;78.57;100212.41;6317233;22;45326;-88
2022/02/16 05:06:21;;;;;;;;;0.00;0.00;;;;;11.66;78.41;100227.19;6290723;22;45562;-88
2022/02/16 05:08:46;;;;;;;;;0.00;0.00;;;;;11.64;78.60;100214.94;6317419;22;46247;-87
2022/02/16 05:11:21;;;;;;;;;0.00;0.00;;;;;11.62;78.31;100219.34;6289655;22;45189;-88
2022/02/16 05:13:46;;;;;;;;;0.00;0.00;;;;;11.63;78.28;100239.56;6315595;22;45203;-87
2022/02/16 05:16:23;;;;;;;;;0.00;0.00;;;;;11.70;77.95;100242.06;6316465;22;45207;-87
2022/02/16 05:18:49;;;;;;;;;0.00;0.00;;;;;11.70;78.03;100234.16;6287399;22;47211;-87
2022/02/16 05:21:15;;;;;;;;;0.00;0.00;;;;;11.78;78.24;100233.16;6288165;22;45164;-87
2022/02/16 05:23:42;;;;;;;;;2.00;2.00;;;;;11.73;78.15;100237.63;6314804;22;45198;-87
2022/02/16 05:26:08;;;;;;;;;0.00;0.00;;;;;11.81;78.42;100241.88;6316435;22;45266;-87
2022/02/16 05:28:33;;;;;;;;;0.00;0.00;;;;;11.81;78.44;100238.38;6286252;22;46714;-86
2022/02/16 05:30:59;;;;;;;;;0.00;0.00;;;;;11.74;78.98;100213.88;6315887;22;44666;-86
2022/02/16 05:33:28;;;;;;;;;0.00;0.00;;;;;11.85;78.61;100233.03;6286610;22;45310;-86
2022/02/16 05:35:53;;;;;;;;;0.00;0.00;;;;;11.79;78.69;100206.78;6316108;22;45398;-87
2022/02/16 05:38:19;;;;;;;;;0.00;0.00;;;;;11.79;78.61;100222.59;6286211;22;47746;-87
2022/02/16 05:40:45;;;;;;;;;0.00;0.00;;;;;11.86;78.80;100210.19;6287786;22;45215;-86
2022/02/16 05:43:13;;;;;;;;;0.00;0.00;;;;;11.87;78.68;100231.28;6314935;22;45100;-87
2022/02/16 05:45:39;;;;;;;;;0.00;0.00;;;;;11.87;78.75;100217.22;6316522;22;45400;-86
2022/02/16 05:48:06;;;;;;;;;0.00;0.00;;;;;11.98;78.58;100233.72;6286114;22;47048;-86
2022/02/16 05:50:35;;;;;;;;;0.00;0.00;;;;;11.94;78.25;100212.69;6316414;22;45164;-87
2022/02/16 05:53:01;;;;;;;;;1.67;1.67;;;;;11.93;78.63;100214.47;6287078;22;45205;-87
2022/02/16 05:55:29;;;;;;;;;1.00;1.00;;;;;12.05;78.52;100235.34;6316278;22;45554;-87
2022/02/16 05:57:58;;;;;;;;;0.00;0.00;;;;;12.07;78.39;100220.34;6286186;22;47678;-87
2022/02/16 06:00:42;;;;;;;;;0.00;0.00;;;;;12.07;78.21;100224.75;6314219;22;45216;-87
2022/02/16 06:03:08;;;;;;;;;1.00;0.00;;;;;12.10;78.03;100230.84;6286843;22;45316;-87
2022/02/16 06:05:34;;;;;;;;;2.00;2.00;;;;;12.16;78.17;100223.72;6315155;22;45135;-86
2022/02/16 06:08:14;;;;;;;;;;;;;;;;;;;;;
2022/02/16 06:10:40;;;;;;;;;0.00;0.00;;;;;12.25;77.94;100240.25;6315168;22;73027;-87
2022/02/16 06:13:06;;;;;;;;;0.00;0.00;;;;;12.28;77.84;100236.69;6287885;22;45338;-88
2022/02/16 06:15:32;;;;;;;;;2.00;2.00;;;;;12.28;77.86;100234.91;6289490;22;45382;-88
2022/02/16 06:17:57;;;;;;;;;0.00;0.00;;;;;12.31;78.00;100234.00;6289064;22;46886;-87
2022/02/16 06:20:23;;;;;;;;;7.50;6.50;;;;;12.34;77.88;100213.69;6317803;22;45214;-87
2022/02/16 06:22:53;;;;;;;;;0.00;0.00;;;;;12.44;77.68;100248.69;6317456;22;45186;-86
2022/02/16 06:25:19;;;;;;;;;0.00;0.00;;;;;12.41;77.83;100224.13;6289324;22;45394;-86
2022/02/16 06:27:44;;;;;;;;;0.00;0.00;;;;;12.52;77.24;100230.06;6315358;22;45338;-86
2022/02/16 06:30:11;;;;;;;;;0.00;0.00;;;;;12.52;77.20;100223.00;6316262;22;45357;-87
2022/02/16 06:32:38;;;;;;;;;0.00;0.00;;;;;12.54;77.15;100223.00;6285502;22;45161;-87
2022/02/16 06:35:04;;;;;;;;;0.00;0.00;;;;;12.62;77.05;100230.78;6284648;22;45452;-87
2022/02/16 06:37:30;;;;;;;;;0.00;0.00;;;;;12.59;77.16;100239.63;6310548;22;46461;-86
2022/02/16 06:39:56;;;;;;;;;0.00;0.00;;;;;12.65;77.21;100242.13;6284799;22;45164;-88
2022/02/16 06:42:21;;;;;;;;;0.00;0.00;;;;;12.71;76.87;100247.28;6311020;22;45403;-87
2022/02/16 06:44:47;;;;;;;;;0.00;0.00;;;;;12.66;76.84;100243.84;6312573;22;45354;-87
2022/02/16 06:47:12;;;;;;;;;0.00;0.00;;;;;12.67;77.06;100236.78;6310645;22;45392;-87
2022/02/16 06:49:38;;;;;;;;;1.00;1.00;;;;;12.70;77.20;100248.19;6312762;22;45209;-87
2022/02/16 06:52:14;;;;;;;;;;;;;;;;;;;;;
2022/02/16 06:54:40;;;;;;;;;0.00;0.00;;;;;12.79;76.87;100270.91;6311574;22;71735;-87
2022/02/16 06:57:13;;;;;;;;;0.00;0.00;;;;;12.76;76.74;100268.31;6282488;22;47174;-87
2022/02/16 06:59:49;;;;;;;;;;;;;;;;;;;;;
2022/02/16 07:02:46;;;;;;;;;0.00;0.00;;;;;12.82;76.57;100267.31;6309893;22;67816;-87
2022/02/16 07:05:12;;;;;;;;;0.00;0.00;;;;;12.88;76.51;100275.09;6283997;22;45233;-86
2022/02/16 07:07:47;;;;;;;;;0.00;0.00;;;;;12.90;76.65;100278.59;6282228;22;46096;-86
2022/02/16 07:10:15;;;;;;;;;1.00;1.00;;;;;12.94;76.87;100290.84;6283595;22;45224;-86
2022/02/16 07:12:41;;;;;;;;;2.00;2.00;;;;;12.93;76.66;100286.47;6281824;22;45488;-86
2022/02/16 07:15:13;;;;;;;;;0.00;0.00;;;;;12.90;76.54;100282.09;6283582;22;45424;-85
2022/02/16 07:17:40;;;;;;;;;1.67;1.67;;;;;13.01;76.52;100303.88;6282370;22;47116;-82
2022/02/16 07:20:08;;;;;;;;;0.67;0.00;;;;;12.98;76.19;100279.31;6311269;22;45294;-84
2022/02/16 07:22:47;;;;;;;;;0.67;0.67;;;;;12.97;76.39;100281.09;6310875;22;45361;-82
2022/02/16 07:25:14;;;;;;;;;0.67;0.67;;;;;13.02;76.41;100287.16;6310117;22;45217;-83
2022/02/16 07:27:40;;;;;;;;;1.33;1.00;;;;;12.99;76.16;100279.28;6309865;22;45362;-83
2022/02/16 07:30:15;;;;;;;;;0.00;0.00;;;;;13.02;76.20;100284.50;6310508;22;45135;-85
2022/02/16 07:32:42;;;;;;;;;0.00;0.00;;;;;13.05;76.09;100267.72;6282410;22;45259;-83
2022/02/16 07:35:12;;;;;;;;;0.00;0.00;;;;;13.10;76.14;100280.84;6282489;22;45490;-83
2022/02/16 07:37:41;;;;;;;;;0.00;0.00;;;;;13.14;75.97;100286.00;6281837;22;47656;-83
2022/02/16 07:40:10;;;;;;;;;1.00;1.00;;;;;13.10;76.25;100271.13;6309804;22;45383;-86
2022/02/16 07:42:36;;;;;;;;;0.00;0.00;;;;;13.16;76.02;100275.41;6282091;22;45282;-81
2022/02/16 07:45:04;;;;;;;;;0.33;0.00;;;;;13.24;76.15;100297.25;6282007;22;45208;-83
2022/02/16 07:47:30;;;;;;;;;0.00;0.00;;;;;13.21;75.73;100292.91;6281875;22;46591;-81
2022/02/16 07:49:55;;;;;;;;;1.00;1.00;;;;;13.29;75.66;100305.13;6311075;22;45134;-78
2022/02/16 07:52:24;;;;;;;;;1.67;1.67;;;;;13.35;75.83;100312.91;6307910;22;45470;-83
2022/02/16 07:54:52;;;;;;;;;0.00;0.00;;;;;13.35;76.01;100307.63;6310218;22;45427;-83
2022/02/16 07:57:20;;;;;;;;;0.00;0.00;;;;;13.31;75.45;100292.72;6281755;22;48018;-83
2022/02/16 07:59:55;;;;;;;;;;;;;;;;;;;;;
2022/02/16 08:02:21;;;;;;;;;0.00;0.00;;;;;13.42;75.66;100312.75;6308861;22;68904;-82
2022/02/16 08:04:49;;;;;;;;;0.00;0.00;;;;;13.45;75.53;100302.09;6310062;22;45428;-83
2022/02/16 08:07:15;;;;;;;;;0.00;0.00;;;;;13.39;75.51;100285.47;6282147;22;47481;-83
2022/02/16 08:09:43;;;;;;;;;0.00;0.00;;;;;13.45;75.39;100298.59;6282084;22;45255;-83
2022/02/16 08:12:11;;;;;;;;;0.00;0.00;;;;;13.50;75.57;100295.81;6281777;22;45267;-85
2022/02/16 08:14:40;;;;;;;;;0.00;0.00;;;;;13.52;75.50;100307.22;6309808;22;45388;-85
2022/02/16 08:17:05;;;;;;;;;2.00;1.67;;;;;13.58;75.59;100307.97;6310923;22;46387;-84
2022/02/16 08:19:31;;;;;;;;;2.00;2.00;;;;;13.59;75.31;100312.34;6310217;22;45349;-82
2022/02/16 08:21:58;;;;;;;;;1.00;1.00;;;;;13.62;75.21;100337.88;6278792;22;45442;-85
2022/02/16 08:24:27;;;;;;;;;0.67;0.67;;;;;13.59;75.26;100340.59;6281606;22;45370;-85
2022/02/16 08:26:54;;;;;;;;;2.00;2.00;;;;;13.64;75.26;100322.84;6281953;22;46959;-85
2022/02/16 08:29:23;;;;;;;;;0.00;0.00;;;;;13.62;75.25;100320.22;6281346;22;45334;-84
2022/02/16 08:31:49;;;;;;;;;2.00;2.00;;;;;13.58;75.22;100312.38;6285016;22;45137;-85
2022/02/16 08:34:15;;;;;;;;;1.67;0.00;;;;;13.62;75.68;100324.63;6284251;22;45527;-85
2022/02/16 08:36:43;;;;;;;;;0.67;0.67;;;;;13.59;75.24;100324.72;6312577;22;46447;-84
2022/02/16 08:39:08;;;;;;;;;0.00;0.00;;;;;13.67;75.57;100328.06;6310642;22;45375;-81
2022/02/16 08:41:34;;;;;;;;;1.33;1.33;;;;;13.64;75.83;100313.13;6281594;22;45295;-81
2022/02/16 08:44:00;;;;;;;;;0.00;0.00;;;;;13.72;75.46;100318.22;6282632;22;45354;-81
2022/02/16 08:46:25;;;;;;;;;0.00;0.00;;;;;13.79;75.49;100326.88;6309893;22;45385;-81
2022/02/16 08:48:51;;;;;;;;;0.00;0.00;;;;;13.71;75.41;100316.47;6309841;22;45298;-82
2022/02/16 08:51:16;;;;;;;;;0.00;0.00;;;;;13.77;75.31;100326.06;6310215;22;45226;-81
2022/02/16 08:53:42;;;;;;;;;0.67;0.67;;;;;13.81;74.83;100314.50;6309375;22;45460;-81
2022/02/16 08:56:07;;;;;;;;;1.00;1.00;;;;;13.83;74.79;100310.03;6281798;22;47697;-82
2022/02/16 08:58:33;;;;;;;;;0.00;0.00;;;;;13.87;74.75;100322.28;6282216;22;45239;-80
2022/02/16 09:01:01;;;;;;;;;0.00;0.00;;;;;13.92;74.79;100322.16;6310989;22;45097;-82
2022/02/16 09:03:29;;;;;;;;;0.00;0.00;;;;;13.94;74.63;100334.47;6283305;22;45963;-81
2022/02/16 09:06:01;;;;;;;;;0.00;0.00;;;;;13.97;74.50;100320.28;6311548;22;46114;-84
2022/02/16 09:08:29;;;;;;;;;0.00;0.00;;;;;14.02;74.19;100311.31;6282136;22;45361;-83
2022/02/16 09:10:54;;;;;;;;;1.67;0.00;;;;;14.01;74.27;100317.53;6310564;22;45338;-83
2022/02/16 09:13:20;;;;;;;;;0.00;0.00;;;;;14.03;74.04;100315.72;6284533;22;45395;-82
2022/02/16 09:15:46;;;;;;;;;0.00;0.00;;;;;14.08;74.09;100337.63;6283578;22;47117;-82
2022/02/16 09:18:15;;;;;;;;;0.00;0.00;;;;;14.02;73.74;100343.09;6312438;22;45173;-82
2022/02/16 09:20:45;;;;;;;;;0.00;0.00;;;;;14.07;73.87;100348.28;6312388;22;45228;-81
2022/02/16 09:23:11;;;;;;;;;2.00;2.00;;;;;14.06;73.83;100349.16;6284184;22;45422;-82
2022/02/16 09:25:37;;;;;;;;;0.67;0.67;;;;;14.10;73.80;100348.19;6285082;22;46840;-83
2022/02/16 09:38:51;;;;;;;;;1.67;1.67;;;;;14.13;73.44;100375.44;6127463;23;45440;-88
2022/02/16 09:52:57;;;;;;;;;1.67;1.67;;;;;14.25;73.16;100360.19;6260391;22;46345;-79
2022/02/16 10:02:25;;;;;;;;;;;;;;;;;;;;;
2022/02/16 11:43:46;;;;;;;;;1.00;0.00;;;;;15.37;71.96;100410.19;6269516;22;46135;-88
2022/02/16 13:15:14;;;;;;;;;;;;;;;;;;;;;
2022/02/16 13:21:34;;;;;;;;;;;;;;;;;;;;;
2022/02/16 13:44:43;;;;;;;;;;;;;;;;;;;;;
2022/02/16 14:32:41;;;;;;;;;0.00;0.00;;;;;16.81;62.49;100380.88;6279139;22;45447;-86
2022/02/16 15:21:24;;;;;;;;;;;;;;;;;;;;;
2022/02/16 15:23:50;;;;;;;;;0.00;0.00;;;;;15.85;67.53;100356.59;6273786;22;72787;-83
2022/02/16 15:30:34;;;;;;;;;0.00;0.00;;;;;15.86;67.71;100372.47;6242275;22;45380;-85
2022/02/16 15:33:31;;;;;;;;;;;;;;;;;;;;;
2022/02/16 15:36:28;;;;;;;;;0.00;0.00;;;;;15.76;68.19;100363.06;6242540;22;73225;-85
2022/02/16 15:39:42;;;;;;;;;1.00;1.00;;;;;15.74;68.45;100370.19;6217132;22;45653;-84
2022/02/16 15:42:08;;;;;;;;;0.00;0.00;;;;;15.78;68.69;100376.28;6096382;23;45644;-84
2022/02/16 15:44:33;;;;;;;;;0.00;0.00;;;;;15.75;68.67;100376.41;6201217;22;47208;-83
2022/02/16 15:47:04;;;;;;;;;0.67;0.67;;;;;15.73;69.00;100376.44;6248800;22;45458;-83
2022/02/16 15:50:05;;;;;;;;;0.00;0.00;;;;;15.69;68.92;100363.28;6276573;22;45399;-84
2022/02/16 15:53:37;;;;;;;;;;;;;;;;;;;;;
2022/02/16 16:00:15;;;;;;;;;0.00;0.00;;;;;15.63;70.00;100390.84;6191829;22;45491;-85
2022/02/16 16:02:48;;;;;;;;;0.00;0.00;;;;;15.58;70.00;100375.09;6273489;22;45480;-85
2022/02/16 16:05:14;;;;;;;;;0.00;0.00;;;;;15.59;70.17;100370.66;6275880;22;45906;-84
2022/02/16 16:07:45;;;;;;;;;0.00;0.00;;;;;15.56;70.21;100365.44;6300861;22;48264;-85
2022/02/16 16:10:16;;;;;;;;;1.00;1.00;;;;;15.66;69.76;100370.41;6301154;22;45544;-87
2022/02/16 16:12:51;;;;;;;;;0.00;0.00;;;;;15.68;69.76;100361.53;6300652;22;45456;-87
2022/02/16 16:15:27;;;;;;;;;;;;;;;;;;;;;
2022/02/16 16:18:07;;;;;;;;;1.00;1.00;;;;;15.70;69.67;100355.28;6275167;22;75122;-87
2022/02/16 16:20:48;;;;;;;;;1.00;1.00;;;;;15.73;69.25;100357.84;6276941;22;45485;-87
2022/02/16 16:23:16;;;;;;;;;0.00;0.00;;;;;15.77;69.31;100358.59;6273662;22;45423;-85
2022/02/16 17:27:47;;;;;;;;;0.33;0.33;;;;;15.14;73.61;100345.44;6247979;22;45219;-89
2022/02/16 17:34:04;;;;;;;;;1.00;1.00;;;;;15.11;73.63;100353.47;6277153;22;45484;-86
2022/02/16 17:40:06;;;;;;;;;0.67;0.67;;;;;15.13;73.61;100359.63;6273017;22;45461;-88
2022/02/16 17:46:00;;;;;;;;;2.00;2.00;;;;;15.15;73.45;100367.50;6276228;22;45385;-84
2022/02/16 17:49:09;;;;;;;;;0.00;0.00;;;;;15.15;73.12;100359.56;6276669;22;46822;-88
2022/02/16 17:56:06;;;;;;;;;;;;;;;;;;;;;
2022/02/16 17:58:32;;;;;;;;;0.00;0.00;;;;;15.16;72.61;100351.56;6233200;22;73069;-87
2022/02/16 18:01:10;;;;;;;;;;;;;;;;;;;;;
2022/02/16 18:03:41;;;;;;;;;0.00;0.00;;;;;15.13;73.28;100367.56;6274015;22;72996;-85
2022/02/16 18:06:06;;;;;;;;;0.00;0.00;;;;;15.11;73.18;100377.34;6302345;22;45334;-86
2022/02/16 18:08:32;;;;;;;;;1.33;0.00;;;;;15.14;73.49;100392.31;6299323;22;45757;-86
2022/02/16 18:11:13;;;;;;;;;;;;;;;;;;;;;
2022/02/16 18:13:40;;;;;;;;;2.00;2.00;;;;;15.07;73.51;100382.75;6275468;22;72952;-83
2022/02/16 18:16:06;;;;;;;;;0.00;0.00;;;;;15.06;73.10;100373.94;6274981;22;45239;-86
2022/02/16 18:18:32;;;;;;;;;0.67;0.67;;;;;15.06;72.92;100375.75;6302736;22;45729;-85
2022/02/16 18:20:58;;;;;;;;;0.00;0.00;;;;;15.08;72.55;100381.88;6284721;22;45385;-85
2022/02/16 18:23:26;;;;;;;;;1.33;0.00;;;;;15.06;72.87;100373.94;6281625;22;45658;-85
2022/02/16 18:26:02;;;;;;;;;1.00;1.00;;;;;15.11;72.30;100374.69;6307801;22;45453;-87
2022/02/16 18:28:30;;;;;;;;;3.00;2.00;;;;;15.08;72.35;100361.53;6280227;22;45531;-87
2022/02/16 18:30:56;;;;;;;;;0.00;0.00;;;;;15.07;72.04;100362.41;6278114;22;47039;-83
2022/02/16 18:37:19;;;;;;;;;;;;;;;;;;;;;
2022/02/16 18:40:08;;;;;;;;;1.00;0.00;;;;;15.08;72.14;100389.81;6214425;22;71431;-86
2022/02/16 18:42:33;;;;;;;;;1.67;1.67;;;;;15.11;71.68;100426.84;6209432;22;46026;-85
2022/02/16 18:44:59;;;;;;;;;0.00;0.00;;;;;15.11;71.89;100400.34;6215361;22;45263;-82
2022/02/16 18:47:24;;;;;;;;;0.33;0.33;;;;;15.16;71.90;100398.44;6199865;22;45570;-84
2022/02/16 18:49:49;;;;;;;;;0.33;0.33;;;;;15.06;71.46;100399.59;6281860;22;45294;-84
2022/02/16 18:52:16;;;;;;;;;0.00;0.00;;;;;15.07;71.78;100394.25;6310293;22;45250;-82
2022/02/16 18:54:45;;;;;;;;;0.00;0.00;;;;;15.09;71.49;100399.50;6309285;22;45251;-84
2022/02/16 18:57:12;;;;;;;;;0.00;0.00;;;;;15.10;71.13;100410.09;6306686;22;45184;-83
2022/02/16 18:59:38;;;;;;;;;0.67;0.67;;;;;15.10;71.09;100399.47;6281368;22;45247;-83
2022/02/16 19:02:04;;;;;;;;;1.00;1.00;;;;;15.08;70.81;100396.00;6309920;22;46162;-82
2022/02/16 19:04:30;;;;;;;;;0.00;0.00;;;;;15.06;71.04;100391.66;6278480;22;45335;-80
2022/02/16 19:06:58;;;;;;;;;0.00;0.00;;;;;15.14;71.27;100400.25;6283059;22;45388;-81
2022/02/16 19:09:24;;;;;;;;;1.00;0.00;;;;;15.14;70.68;100414.38;6315139;22;45322;-81
2022/02/16 19:11:53;;;;;;;;;0.67;0.00;;;;;15.17;70.31;100416.06;6282746;22;46837;-82
2022/02/16 19:14:21;;;;;;;;;2.00;2.00;;;;;15.12;70.40;100410.03;6285902;22;45228;-81
2022/02/16 19:16:48;;;;;;;;;0.00;0.00;;;;;15.12;70.27;100400.28;6312286;22;45180;-82
2022/02/16 19:19:14;;;;;;;;;3.00;2.00;;;;;15.17;70.03;100406.34;6311067;22;45295;-82
2022/02/16 19:21:47;;;;;;;;;0.00;0.00;;;;;15.17;70.04;100387.75;6277068;22;48248;-82
2022/02/16 19:24:13;;;;;;;;;0.00;0.00;;;;;15.19;69.90;100395.69;6301968;22;45415;-81
2022/02/16 19:26:39;;;;;;;;;0.00;0.00;;;;;15.20;69.97;100408.88;6278963;22;45453;-82
2022/02/16 19:29:04;;;;;;;;;2.00;2.00;;;;;15.17;69.79;100393.06;6303724;22;45310;-82
2022/02/16 19:31:30;;;;;;;;;1.00;1.00;;;;;15.15;69.49;100389.59;6279485;22;45441;-82
2022/02/16 19:33:57;;;;;;;;;1.00;1.00;;;;;15.19;69.39;100399.22;6303172;22;45303;-82
2022/02/16 19:36:23;;;;;;;;;0.00;0.00;;;;;15.18;69.29;100401.88;6277325;22;45233;-81
2022/02/16 19:38:49;;;;;;;;;0.67;0.67;;;;;15.22;69.60;100404.41;6277485;22;45270;-81
2022/02/16 19:41:14;;;;;;;;;2.67;2.67;;;;;15.16;69.87;100401.94;6278983;22;45238;-81
2022/02/16 19:43:46;;;;;;;;;1.00;1.00;;;;;15.17;69.01;100401.03;6280667;22;45187;-82
2022/02/16 19:46:12;;;;;;;;;0.00;0.00;;;;;15.21;68.87;100404.47;6279563;22;45216;-80
2022/02/16 19:48:37;;;;;;;;;0.67;0.67;;;;;15.21;69.09;100401.84;6300929;22;45449;-82
2022/02/16 19:51:03;;;;;;;;;3.00;3.00;;;;;15.23;69.38;100407.94;6273795;22;47453;-82
2022/02/16 19:53:29;;;;;;;;;0.00;0.00;;;;;15.18;69.21;100408.09;6274306;22;45712;-81